Mega Smeralda — ICIU — position and weather

sailwx.info

Track history (hours):
 
Tides and Currents Weather Stations Pressure Air Temp Water Temp Dewpoint Dewpoint Depression Visibility Wind Speed Wind Dir Waves Ship Positions

Mega Smeralda

Last reported at 2016-Feb-07 20:28 UTC. Time now 2016-Feb-08 07:59 UTC.
Position N 43°04' E 005°58'.

Length 171 m; draft 6.4 m.

Type: Passenger vessel. MMSI: 247228600.

Date/timePositionNaut miles runAvg speedWind from/ knotsBaromVisibWave heightAir tempDewpointWater temp
2016-Feb-07 20:28N 43°04' E 005°58'3 3.5
2016-Feb-07 19:33N 43°07' E 005°56'0 0.0
2016-Feb-07 18:33N 43°07' E 005°56'0 0.0
2016-Feb-07 17:33N 43°07' E 005°56'0 0.0
2016-Feb-07 16:33N 43°07' E 005°56'0 0.0
2016-Feb-07 15:33N 43°07' E 005°56'0 0.0
2016-Feb-07 14:33N 43°07' E 005°56'0 0.0
2016-Feb-07 13:30N 43°07' E 005°56'0 0.0
2016-Feb-07 12:33N 43°07' E 005°56'0 0.0
2016-Feb-07 11:15N 43°07' E 005°56'0 0.0
2016-Feb-07 10:15N 43°07' E 005°56'0 0.0
2016-Feb-07 09:21N 43°07' E 005°56'0 0.0
2016-Feb-07 08:33N 43°07' E 005°56'0 0.0
2016-Feb-07 07:33N 43°07' E 005°56'5211.8
2016-Feb-07 03:11N 42°59' E 007°06'9015.5
2016-Feb-06 21:21N 43°03' E 009°09'1514.3
2016-Feb-06 20:18N 43°01' E 009°30'15 3.7
2016-Feb-06 16:12N 42°53' E 009°47'1116.9
2016-Feb-06 15:33N 43°01' E 009°58'1717.3
2016-Feb-06 14:33N 43°17' E 010°06'1616.2
2016-Feb-06 13:33N 43°32' E 010°15'2 2.3
2016-Feb-06 12:34N 43°33' E 010°18'0 0.3
2016-Feb-06 11:33N 43°33' E 010°18'1212.1
2016-Feb-06 10:34N 43°23' E 010°09'1615.7
2016-Feb-06 09:33N 43°08' E 010°02'1515.2
2016-Feb-06 08:33N 42°55' E 009°50'17014.0
2016-Feb-05 20:23N 43°04' E 005°58'3 3.8
2016-Feb-05 19:31N 43°07' E 005°56'0 0.0
2016-Feb-05 18:31N 43°07' E 005°56'0 0.0
2016-Feb-05 17:31N 43°07' E 005°56'0 0.0
2016-Feb-05 16:31N 43°07' E 005°56'0 0.0
2016-Feb-05 15:33N 43°07' E 005°56'0 0.0
2016-Feb-05 14:33N 43°07' E 005°56'0 0.0
2016-Feb-05 13:34N 43°07' E 005°56'0 0.0
2016-Feb-05 12:33N 43°07' E 005°56'0 0.0
2016-Feb-05 11:33N 43°07' E 005°56'0 0.0
2016-Feb-05 10:33N 43°07' E 005°56'0 0.0
2016-Feb-05 09:33N 43°07' E 005°56'0 0.0
2016-Feb-05 08:33N 43°07' E 005°56'0 0.0
2016-Feb-05 07:33N 43°07' E 005°56'0 0.0
2016-Feb-05 06:33N 43°07' E 005°56'13212.8
2016-Feb-04 20:18N 41°53' E 008°24'132 5.5
2016-Feb-03 20:33N 43°06' E 005°55'1 1.1
2016-Feb-03 19:34N 43°07' E 005°56'0 0.0
2016-Feb-03 18:33N 43°07' E 005°56'0 0.0
2016-Feb-03 17:33N 43°07' E 005°56'0 0.0
2016-Feb-03 16:33N 43°07' E 005°56'0 0.0
2016-Feb-03 15:33N 43°07' E 005°56'0 0.0
2016-Feb-03 14:33N 43°07' E 005°56'0 0.0
2016-Feb-03 13:32N 43°07' E 005°56'0 0.0
2016-Feb-03 12:33N 43°07' E 005°56'0 0.0
2016-Feb-03 11:32N 43°07' E 005°56'0 0.0
2016-Feb-03 10:25N 43°07' E 005°56'0 0.0
2016-Feb-03 09:28N 43°07' E 005°56'0 0.0
2016-Feb-03 08:33N 43°07' E 005°56'0 0.0
2016-Feb-03 07:33N 43°07' E 005°56'0 0.0
2016-Feb-03 06:34N 43°07' E 005°56'3 0.1
2016-Feb-01 20:24N 43°04' E 005°58'3 3.7
2016-Feb-01 19:32N 43°07' E 005°56'0 0.0
2016-Feb-01 18:32N 43°07' E 005°56'0 0.0
2016-Feb-01 17:32N 43°07' E 005°56'0 0.0
2016-Feb-01 16:32N 43°07' E 005°56'0 0.0
2016-Feb-01 15:32N 43°07' E 005°56'0 0.0
2016-Feb-01 14:32N 43°07' E 005°56'0 0.0
2016-Feb-01 13:32N 43°07' E 005°56'0 0.0
2016-Feb-01 12:32N 43°07' E 005°56'0 0.0
2016-Feb-01 11:32N 43°07' E 005°56'0 0.0
2016-Feb-01 10:32N 43°07' E 005°56'0 0.0
2016-Feb-01 09:32N 43°07' E 005°56'0 0.0
2016-Feb-01 07:32N 43°07' E 005°56'0 0.0
2016-Feb-01 06:32N 43°07' E 005°56'3 0.1
2016-Jan-30 20:22N 43°04' E 005°58'3 3.5
2016-Jan-30 19:31N 43°07' E 005°56'0 0.0
2016-Jan-30 18:31N 43°07' E 005°56'0 0.0
2016-Jan-30 17:31N 43°07' E 005°56'0 0.0
2016-Jan-30 16:31N 43°07' E 005°56'0 0.0
2016-Jan-30 15:31N 43°07' E 005°56'0 0.0
2016-Jan-30 14:31N 43°07' E 005°56'0 0.0
2016-Jan-30 13:19N 43°07' E 005°56'0 0.0
2016-Jan-30 12:25N 43°07' E 005°56'0 0.0
2016-Jan-30 11:25N 43°07' E 005°56'0 0.0
2016-Jan-30 10:31N 43°07' E 005°56'0 0.0
2016-Jan-30 09:31N 43°07' E 005°56'0 0.0
2016-Jan-30 08:31N 43°07' E 005°56'0 0.0
2016-Jan-30 07:25N 43°07' E 005°56'0 0.0
2016-Jan-30 06:31N 43°07' E 005°56'  
Track history (hours):
 
Tides and Currents Weather Stations Pressure Air Temp Water Temp Dewpoint Dewpoint Depression Visibility Wind Speed Wind Dir Waves Ship Positions

Mega Smeralda

Last reported at 2016-Feb-07 20:28 UTC. Time now 2016-Feb-08 07:59 UTC.
Position N 43°04' E 005°58'.

Length 171 m; draft 6.4 m.

Type: Passenger vessel. MMSI: 247228600.

Date/timePositionNaut miles runAvg speedWind from/ knotsBaromVisibWave heightAir tempDewpointWater temp
2016-Feb-07 20:28N 43°04' E 005°58'3 3.5
2016-Feb-07 19:33N 43°07' E 005°56'0 0.0
2016-Feb-07 18:33N 43°07' E 005°56'0 0.0
2016-Feb-07 17:33N 43°07' E 005°56'0 0.0
2016-Feb-07 16:33N 43°07' E 005°56'0 0.0
2016-Feb-07 15:33N 43°07' E 005°56'0 0.0
2016-Feb-07 14:33N 43°07' E 005°56'0 0.0
2016-Feb-07 13:30N 43°07' E 005°56'0 0.0
2016-Feb-07 12:33N 43°07' E 005°56'0 0.0
2016-Feb-07 11:15N 43°07' E 005°56'0 0.0
2016-Feb-07 10:15N 43°07' E 005°56'0 0.0
2016-Feb-07 09:21N 43°07' E 005°56'0 0.0
2016-Feb-07 08:33N 43°07' E 005°56'0 0.0
2016-Feb-07 07:33N 43°07' E 005°56'5211.8
2016-Feb-07 03:11N 42°59' E 007°06'9015.5
2016-Feb-06 21:21N 43°03' E 009°09'1514.3
2016-Feb-06 20:18N 43°01' E 009°30'15 3.7
2016-Feb-06 16:12N 42°53' E 009°47'1116.9
2016-Feb-06 15:33N 43°01' E 009°58'1717.3
2016-Feb-06 14:33N 43°17' E 010°06'1616.2
2016-Feb-06 13:33N 43°32' E 010°15'2 2.3
2016-Feb-06 12:34N 43°33' E 010°18'0 0.3
2016-Feb-06 11:33N 43°33' E 010°18'1212.1
2016-Feb-06 10:34N 43°23' E 010°09'1615.7
2016-Feb-06 09:33N 43°08' E 010°02'1515.2
2016-Feb-06 08:33N 42°55' E 009°50'17014.0
2016-Feb-05 20:23N 43°04' E 005°58'3 3.8
2016-Feb-05 19:31N 43°07' E 005°56'0 0.0
2016-Feb-05 18:31N 43°07' E 005°56'0 0.0
2016-Feb-05 17:31N 43°07' E 005°56'0 0.0
2016-Feb-05 16:31N 43°07' E 005°56'0 0.0
2016-Feb-05 15:33N 43°07' E 005°56'0 0.0
2016-Feb-05 14:33N 43°07' E 005°56'0 0.0
2016-Feb-05 13:34N 43°07' E 005°56'0 0.0
2016-Feb-05 12:33N 43°07' E 005°56'0 0.0
2016-Feb-05 11:33N 43°07' E 005°56'0 0.0
2016-Feb-05 10:33N 43°07' E 005°56'0 0.0
2016-Feb-05 09:33N 43°07' E 005°56'0 0.0
2016-Feb-05 08:33N 43°07' E 005°56'0 0.0
2016-Feb-05 07:33N 43°07' E 005°56'0 0.0
2016-Feb-05 06:33N 43°07' E 005°56'13212.8
2016-Feb-04 20:18N 41°53' E 008°24'132 5.5
2016-Feb-03 20:33N 43°06' E 005°55'1 1.1
2016-Feb-03 19:34N 43°07' E 005°56'0 0.0
2016-Feb-03 18:33N 43°07' E 005°56'0 0.0
2016-Feb-03 17:33N 43°07' E 005°56'0 0.0
2016-Feb-03 16:33N 43°07' E 005°56'0 0.0
2016-Feb-03 15:33N 43°07' E 005°56'0 0.0
2016-Feb-03 14:33N 43°07' E 005°56'0 0.0
2016-Feb-03 13:32N 43°07' E 005°56'0 0.0
2016-Feb-03 12:33N 43°07' E 005°56'0 0.0
2016-Feb-03 11:32N 43°07' E 005°56'0 0.0
2016-Feb-03 10:25N 43°07' E 005°56'0 0.0
2016-Feb-03 09:28N 43°07' E 005°56'0 0.0
2016-Feb-03 08:33N 43°07' E 005°56'0 0.0
2016-Feb-03 07:33N 43°07' E 005°56'0 0.0
2016-Feb-03 06:34N 43°07' E 005°56'3 0.1
2016-Feb-01 20:24N 43°04' E 005°58'3 3.7
2016-Feb-01 19:32N 43°07' E 005°56'0 0.0
2016-Feb-01 18:32N 43°07' E 005°56'0 0.0
2016-Feb-01 17:32N 43°07' E 005°56'0 0.0
2016-Feb-01 16:32N 43°07' E 005°56'0 0.0
2016-Feb-01 15:32N 43°07' E 005°56'0 0.0
2016-Feb-01 14:32N 43°07' E 005°56'0 0.0
2016-Feb-01 13:32N 43°07' E 005°56'0 0.0
2016-Feb-01 12:32N 43°07' E 005°56'0 0.0
2016-Feb-01 11:32N 43°07' E 005°56'0 0.0
2016-Feb-01 10:32N 43°07' E 005°56'0 0.0
2016-Feb-01 09:32N 43°07' E 005°56'0 0.0
2016-Feb-01 07:32N 43°07' E 005°56'0 0.0
2016-Feb-01 06:32N 43°07' E 005°56'3 0.1
2016-Jan-30 20:22N 43°04' E 005°58'3 3.5
2016-Jan-30 19:31N 43°07' E 005°56'0 0.0
2016-Jan-30 18:31N 43°07' E 005°56'0 0.0
2016-Jan-30 17:31N 43°07' E 005°56'0 0.0
2016-Jan-30 16:31N 43°07' E 005°56'0 0.0
2016-Jan-30 15:31N 43°07' E 005°56'0 0.0
2016-Jan-30 14:31N 43°07' E 005°56'0 0.0
2016-Jan-30 13:19N 43°07' E 005°56'0 0.0
2016-Jan-30 12:25N 43°07' E 005°56'0 0.0
2016-Jan-30 11:25N 43°07' E 005°56'0 0.0
2016-Jan-30 10:31N 43°07' E 005°56'0 0.0
2016-Jan-30 09:31N 43°07' E 005°56'0 0.0
2016-Jan-30 08:31N 43°07' E 005°56'0 0.0
2016-Jan-30 07:25N 43°07' E 005°56'0 0.0
2016-Jan-30 06:31N 43°07' E 005°56'  

Dump ship's entire track history